createdAt,value
2022-12-01T00:01:02.768Z,113.35
2022-12-01T00:03:32.600Z,128.70
2022-12-01T00:06:00.373Z,117.07
2022-12-01T00:08:27.560Z,131.98
2022-12-01T00:10:53.988Z,121.80
2022-12-01T00:13:20.452Z,125.80
2022-12-01T00:15:46.860Z,141.05
2022-12-01T00:18:13.239Z,137.52
2022-12-01T00:20:40.327Z,131.00
2022-12-01T00:23:06.825Z,146.52
2022-12-01T00:25:33.196Z,143.82
2022-12-01T00:27:59.607Z,129.55
2022-12-01T00:30:26.183Z,123.25
2022-12-01T00:32:52.607Z,128.90
2022-12-01T00:35:19.007Z,148.52
2022-12-01T00:37:45.428Z,157.40
2022-12-01T00:40:12.283Z,140.40
2022-12-01T00:42:38.719Z,153.82
2022-12-01T00:45:05.781Z,147.95
2022-12-01T00:47:32.310Z,137.77
2022-12-01T00:49:58.700Z,154.32
2022-12-01T00:52:25.127Z,149.57
2022-12-01T00:54:51.520Z,136.73
2022-12-01T00:57:17.912Z,152.48
2022-12-01T00:59:44.360Z,145.98
2022-12-01T01:02:10.958Z,148.60
2022-12-01T01:04:37.522Z,151.02
2022-12-01T01:07:03.971Z,151.80
2022-12-01T01:09:31.541Z,152.60
2022-12-01T01:11:57.951Z,143.70
2022-12-01T01:14:24.541Z,147.52
2022-12-01T01:16:51.104Z,143.50
2022-12-01T01:19:17.704Z,139.48
2022-12-01T01:21:44.077Z,132.27
2022-12-01T01:24:10.679Z,149.90
2022-12-01T01:26:37.775Z,154.50
2022-12-01T01:29:07.496Z,132.35
2022-12-01T01:31:34.922Z,142.30
2022-12-01T01:34:01.340Z,164.60
2022-12-01T01:36:28.007Z,162.10
2022-12-01T01:38:55.147Z,154.65
2022-12-01T01:41:22.233Z,149.20
2022-12-01T01:43:51.729Z,154.65
2022-12-01T01:46:23.989Z,150.50
2022-12-01T01:49:03.759Z,147.23
2022-12-01T01:51:42.405Z,151.95
2022-12-01T01:54:15.574Z,173.60
2022-12-01T01:56:43.760Z,152.48
2022-12-01T01:59:11.694Z,149.63
2022-12-01T02:01:38.330Z,149.77
2022-12-01T02:04:04.944Z,167.65
2022-12-01T02:06:31.307Z,154.05
2022-12-01T02:08:57.700Z,161.48
2022-12-01T02:11:51.015Z,161.93
2022-12-01T02:14:25.028Z,139.55
2022-12-01T02:17:10.920Z,163.48
2022-12-01T02:19:43.383Z,131.63
2022-12-01T02:22:28.073Z,122.50
2022-12-01T02:25:03.855Z,150.30
2022-12-01T02:27:58.291Z,145.88
2022-12-01T02:30:40.345Z,152.88
2022-12-01T02:33:16.669Z,126.22
2022-12-01T02:35:50.336Z,131.95
2022-12-01T02:38:40.965Z,113.50
2022-12-01T02:41:33.719Z,123.47
2022-12-01T02:44:11.060Z,104.78
2022-12-01T02:46:50.767Z,117.68
2022-12-01T02:49:21.307Z,98.75
2022-12-01T02:51:48.640Z,100.15
2022-12-01T02:54:15.703Z,89.63
2022-12-01T02:56:44.448Z,98.43
2022-12-01T02:59:12.518Z,86.47
2022-12-01T03:02:12.686Z,102.78
2022-12-01T03:04:44.327Z,76.03
2022-12-01T03:07:11.042Z,76.35
2022-12-01T03:09:47.679Z,78.00
2022-12-01T03:12:21.342Z,79.53
2022-12-01T03:15:08.152Z,87.60
2022-12-01T03:17:40.519Z,90.05
2022-12-01T03:20:13.191Z,92.18
2022-12-01T03:22:44.718Z,97.40
2022-12-01T03:25:12.578Z,81.78
2022-12-01T03:27:47.162Z,92.20
2022-12-01T03:30:22.043Z,91.20
2022-12-01T03:32:51.631Z,94.03
2022-12-01T03:35:37.935Z,95.70
2022-12-01T03:38:18.829Z,107.90
2022-12-01T03:40:48.201Z,93.45
2022-12-01T03:43:19.780Z,101.53
2022-12-01T03:46:09.944Z,110.72
2022-12-01T03:48:37.995Z,112.73
2022-12-01T03:51:18.255Z,95.55
2022-12-01T03:54:22.499Z,115.23
2022-12-01T03:56:53.573Z,110.50
2022-12-01T04:01:47.040Z,102.22
2022-12-01T04:04:14.560Z,115.82
2022-12-01T04:06:43.546Z,132.52
2022-12-01T04:09:10.014Z,127.38
2022-12-01T04:11:55.063Z,103.72
2022-12-01T04:14:21.882Z,102.13
2022-12-01T04:16:48.637Z,117.15
2022-12-01T04:19:15.020Z,130.02
2022-12-01T04:21:41.448Z,137.57
2022-12-01T04:24:08.071Z,127.85
2022-12-01T04:26:36.358Z,124.00
2022-12-01T04:29:05.855Z,116.05
2022-12-01T04:31:32.336Z,142.30
2022-12-01T04:33:59.429Z,129.32
2022-12-01T04:36:26.644Z,126.28
2022-12-01T04:38:53.056Z,131.02
2022-12-01T04:41:19.492Z,121.28
2022-12-01T04:43:45.888Z,139.98
2022-12-01T04:46:12.553Z,121.10
2022-12-01T04:48:39.157Z,112.32
2022-12-01T04:51:07.248Z,109.97
2022-12-01T04:53:34.064Z,115.18
2022-12-01T04:56:01.116Z,95.13
2022-12-01T04:58:28.603Z,114.47
2022-12-01T05:00:55.151Z,114.65
2022-12-01T05:03:21.639Z,101.75
2022-12-01T05:05:48.075Z,105.57
2022-12-01T05:08:14.504Z,118.55
2022-12-01T05:10:40.899Z,113.53
2022-12-01T05:13:07.385Z,119.28
2022-12-01T05:15:33.771Z,114.88
2022-12-01T05:18:00.805Z,100.43
2022-12-01T05:20:45.770Z,110.43
2022-12-01T05:23:16.485Z,97.45
2022-12-01T05:25:43.501Z,108.35
2022-12-01T05:28:10.231Z,97.18
2022-12-01T05:30:36.631Z,98.47
2022-12-01T05:33:03.390Z,109.47
2022-12-01T05:35:29.809Z,94.28
2022-12-01T05:37:56.243Z,110.32
2022-12-01T05:40:22.675Z,93.82
2022-12-01T05:42:49.143Z,121.28
2022-12-01T05:45:15.616Z,114.10
2022-12-01T05:47:42.036Z,113.53
2022-12-01T05:50:08.903Z,125.50
2022-12-01T05:52:35.798Z,113.80
2022-12-01T05:55:03.820Z,114.68
2022-12-01T05:57:31.430Z,117.03
2022-12-01T05:59:57.869Z,131.02
2022-12-01T06:02:26.692Z,116.55
2022-12-01T06:04:53.611Z,112.43
2022-12-01T06:07:21.019Z,129.40
2022-12-01T06:09:47.808Z,102.88
2022-12-01T06:12:14.659Z,133.13
2022-12-01T06:14:41.410Z,118.32
2022-12-01T06:17:07.795Z,104.15
2022-12-01T06:19:36.751Z,104.50
2022-12-01T06:22:03.825Z,114.43
2022-12-01T06:24:30.189Z,113.15
2022-12-01T06:26:56.618Z,119.38
2022-12-01T06:29:23.034Z,109.38
2022-12-01T06:31:49.647Z,125.65
2022-12-01T06:34:16.259Z,104.50
2022-12-01T06:36:42.629Z,117.15
2022-12-01T06:39:10.030Z,117.97
2022-12-01T06:41:39.865Z,119.55
2022-12-01T06:44:06.423Z,119.95
2022-12-01T06:46:32.938Z,100.15
2022-12-01T06:48:59.431Z,117.85
2022-12-01T06:51:25.824Z,120.00
2022-12-01T06:53:57.722Z,113.57
2022-12-01T06:56:27.385Z,116.13
2022-12-01T06:58:54.009Z,127.82
2022-12-01T07:01:21.204Z,112.53
2022-12-01T07:03:51.176Z,115.82
2022-12-01T07:06:18.024Z,128.50
2022-12-01T07:08:44.860Z,107.63
2022-12-01T07:11:13.695Z,119.43
2022-12-01T07:13:40.898Z,123.85
2022-12-01T07:16:08.259Z,124.70
2022-12-01T07:18:35.701Z,129.90
2022-12-01T07:21:04.271Z,113.20
2022-12-01T07:23:30.805Z,124.55
2022-12-01T07:26:01.505Z,116.70
2022-12-01T07:28:28.583Z,126.45
2022-12-01T07:31:04.099Z,112.40
2022-12-01T07:33:30.799Z,133.90
2022-12-01T07:35:57.376Z,129.48
2022-12-01T07:38:23.818Z,132.13
2022-12-01T07:40:50.292Z,120.93
2022-12-01T07:43:16.677Z,123.20
2022-12-01T07:45:43.153Z,130.48
2022-12-01T07:48:09.611Z,127.05
2022-12-01T07:50:36.000Z,109.15
2022-12-01T07:53:02.426Z,115.95
2022-12-01T07:55:28.825Z,115.70
2022-12-01T07:57:55.213Z,122.90
2022-12-01T08:00:21.794Z,124.90
2022-12-01T08:02:49.265Z,115.70
2022-12-01T08:05:15.731Z,118.43
2022-12-01T08:07:42.261Z,124.70
2022-12-01T08:10:08.948Z,128.25
2022-12-01T08:12:35.334Z,126.72
2022-12-01T08:15:02.674Z,123.50
2022-12-01T08:17:29.047Z,97.82
2022-12-01T08:19:55.448Z,107.68
2022-12-01T08:22:21.843Z,96.55
2022-12-01T08:24:48.232Z,113.22
2022-12-01T08:27:14.602Z,112.85
2022-12-01T08:29:41.038Z,116.53
2022-12-01T08:32:07.443Z,113.88
2022-12-01T08:34:37.241Z,109.47
2022-12-01T08:37:03.676Z,117.70
2022-12-01T08:39:30.040Z,123.75
2022-12-01T08:41:56.425Z,122.15
2022-12-01T08:44:22.860Z,132.45
2022-12-01T08:46:49.747Z,127.13
2022-12-01T08:49:16.320Z,113.07
2022-12-01T08:51:42.913Z,103.05
2022-12-01T08:54:11.017Z,94.22
2022-12-01T08:56:40.431Z,98.85
2022-12-01T08:59:07.068Z,105.97
2022-12-01T09:01:33.839Z,102.65
2022-12-01T09:04:10.138Z,106.45
2022-12-01T09:06:45.215Z,100.55
2022-12-01T09:09:19.705Z,102.82
2022-12-01T09:11:46.932Z,104.50
2022-12-01T09:14:14.547Z,97.53
2022-12-01T09:16:42.110Z,101.45
2022-12-01T09:19:08.711Z,111.35
2022-12-01T09:21:38.985Z,101.68
2022-12-01T09:24:06.819Z,100.03
2022-12-01T09:26:33.756Z,101.85
2022-12-01T09:29:03.470Z,94.35
2022-12-01T09:31:30.302Z,91.70
2022-12-01T09:33:59.154Z,94.82
2022-12-01T09:36:26.266Z,86.45
2022-12-01T09:38:52.968Z,99.53
2022-12-01T09:41:23.756Z,106.93
2022-12-01T09:44:05.885Z,105.13
2022-12-01T09:46:38.017Z,95.40
2022-12-01T09:49:06.813Z,80.65
2022-12-01T09:51:36.022Z,99.72
2022-12-01T09:54:03.009Z,94.30
2022-12-01T09:56:34.121Z,92.00
2022-12-01T09:59:02.815Z,91.25
2022-12-01T10:01:35.619Z,86.80
2022-12-01T10:04:16.580Z,89.30
2022-12-01T10:07:08.416Z,90.28
2022-12-01T10:09:52.450Z,86.97
2022-12-01T10:12:22.550Z,91.97
2022-12-01T10:14:48.982Z,103.93
2022-12-01T10:17:27.635Z,100.00
2022-12-01T10:20:06.599Z,90.85
2022-12-01T10:23:01.718Z,81.20
2022-12-01T10:25:34.638Z,79.40
2022-12-01T10:28:33.259Z,98.97
2022-12-01T10:31:09.708Z,93.30
2022-12-01T10:33:44.086Z,91.22
2022-12-01T10:36:10.637Z,94.13
2022-12-01T10:38:38.416Z,98.93
2022-12-01T10:41:06.760Z,105.32
2022-12-01T10:43:37.674Z,98.53
2022-12-01T10:46:20.263Z,94.70
2022-12-01T10:48:59.164Z,91.53
2022-12-01T10:51:27.855Z,94.00
2022-12-01T10:53:59.039Z,87.57
2022-12-01T10:56:25.647Z,98.80
2022-12-01T10:58:54.470Z,86.55
2022-12-01T11:01:26.546Z,94.60
2022-12-01T11:04:25.331Z,90.07
2022-12-01T11:06:51.772Z,87.65
2022-12-01T11:09:29.280Z,81.97
2022-12-01T11:12:00.744Z,93.22
2022-12-01T11:14:37.094Z,89.22
2022-12-01T11:17:37.306Z,90.65
2022-12-01T11:20:30.503Z,81.88
2022-12-01T11:23:20.994Z,79.63
2022-12-01T11:26:01.683Z,87.25
2022-12-01T11:28:28.237Z,89.75
2022-12-01T11:31:00.308Z,77.22
2022-12-01T11:33:27.028Z,97.88
2022-12-01T11:35:53.672Z,83.57
2022-12-01T11:38:30.393Z,97.80
2022-12-01T11:40:57.759Z,78.15
2022-12-01T11:43:30.260Z,103.20
2022-12-01T11:45:58.765Z,96.40
2022-12-01T11:48:27.517Z,100.90
2022-12-01T11:51:06.272Z,102.65
2022-12-01T11:53:36.712Z,92.68
2022-12-01T11:56:23.702Z,95.18
2022-12-01T11:58:54.764Z,88.82
2022-12-01T12:04:04.036Z,94.10
2022-12-01T12:06:41.263Z,83.75
2022-12-01T12:09:10.707Z,88.55
2022-12-01T12:11:37.039Z,84.28
2022-12-01T12:14:26.587Z,79.65
2022-12-01T12:17:16.610Z,90.72
2022-12-01T12:20:08.877Z,91.13
2022-12-01T12:23:11.179Z,93.68
2022-12-01T12:26:01.794Z,84.50
2022-12-01T12:28:37.173Z,86.40
2022-12-01T12:31:29.589Z,89.90
2022-12-01T12:34:19.089Z,104.95
2022-12-01T12:37:19.348Z,103.75
2022-12-01T12:39:52.073Z,97.72
2022-12-01T12:42:57.248Z,103.50
2022-12-01T12:45:37.984Z,98.80
2022-12-01T12:48:57.352Z,100.88
2022-12-01T12:51:39.458Z,103.72
2022-12-01T12:54:12.056Z,104.70
2022-12-01T12:56:41.123Z,110.13
2022-12-01T12:59:11.772Z,102.70
2022-12-01T13:01:55.529Z,113.18
2022-12-01T13:04:25.920Z,114.28
2022-12-01T13:06:58.400Z,116.80
2022-12-01T13:09:46.878Z,112.93
2022-12-01T13:12:19.334Z,119.78
2022-12-01T13:14:49.860Z,123.65
2022-12-01T13:17:20.137Z,117.38
2022-12-01T13:19:48.213Z,114.55
2022-12-01T13:22:17.057Z,121.93
2022-12-01T13:24:43.820Z,115.95
2022-12-01T13:27:10.180Z,110.82
2022-12-01T13:29:45.687Z,132.05
2022-12-01T13:32:26.270Z,128.23
2022-12-01T13:34:52.912Z,118.35
2022-12-01T13:37:36.210Z,122.22
2022-12-01T13:40:23.728Z,121.22
2022-12-01T13:43:10.378Z,113.15
2022-12-01T13:45:38.781Z,128.73
2022-12-01T13:48:26.487Z,126.53
2022-12-01T13:50:52.787Z,124.13
2022-12-01T13:53:19.082Z,133.07
2022-12-01T13:56:05.969Z,142.90
2022-12-01T13:58:32.602Z,135.65
2022-12-01T14:01:22.293Z,129.35
2022-12-01T14:03:51.808Z,127.93
2022-12-01T14:06:26.534Z,142.27
2022-12-01T14:08:58.054Z,134.25
2022-12-01T14:11:28.889Z,134.20
2022-12-01T14:13:58.753Z,130.55
2022-12-01T14:16:25.759Z,143.65
2022-12-01T14:18:55.675Z,141.02
2022-12-01T14:21:57.801Z,134.77
2022-12-01T14:24:33.786Z,130.43
2022-12-01T14:27:00.174Z,140.13
2022-12-01T14:29:42.982Z,144.50
2022-12-01T14:32:09.292Z,134.68
2022-12-01T14:34:37.213Z,145.30
2022-12-01T14:37:07.796Z,140.00
2022-12-01T14:39:36.459Z,133.77
2022-12-01T14:42:58.150Z,136.57
2022-12-01T14:45:29.170Z,131.02
2022-12-01T14:50:37.773Z,132.57
2022-12-01T14:53:22.264Z,151.73
2022-12-01T14:56:01.666Z,142.98
2022-12-01T14:58:30.687Z,146.10
2022-12-01T15:01:09.366Z,138.93
2022-12-01T15:03:44.112Z,133.27
2022-12-01T15:06:19.505Z,136.02
2022-12-01T15:09:03.947Z,140.52
2022-12-01T15:11:33.127Z,142.90
2022-12-01T15:13:59.566Z,132.57
2022-12-01T15:16:29.420Z,153.23
2022-12-01T15:18:56.042Z,152.10
2022-12-01T15:21:29.901Z,152.18
2022-12-01T15:24:03.825Z,143.60
2022-12-01T15:26:46.659Z,146.23
2022-12-01T15:29:22.479Z,142.65
2022-12-01T15:31:53.555Z,144.57
2022-12-01T15:34:41.400Z,132.48
2022-12-01T15:37:11.623Z,145.13
2022-12-01T15:43:15.998Z,156.85
2022-12-01T15:46:01.173Z,137.23
2022-12-01T15:48:34.163Z,140.18
2022-12-01T15:51:11.132Z,139.68
2022-12-01T15:53:42.597Z,132.90
2022-12-01T15:56:10.477Z,147.75
2022-12-01T15:58:42.611Z,147.55
2022-12-01T16:01:12.660Z,162.98
2022-12-01T16:03:52.908Z,173.20
2022-12-01T16:06:20.187Z,165.57
2022-12-01T16:09:05.091Z,163.10
2022-12-01T16:11:32.393Z,166.25
2022-12-01T16:14:18.429Z,155.95
2022-12-01T16:16:52.952Z,155.85
2022-12-01T16:19:23.504Z,156.35
2022-12-01T16:21:56.788Z,155.63
2022-12-01T16:24:28.020Z,149.73
2022-12-01T16:26:55.814Z,157.70
2022-12-01T16:29:23.941Z,147.02
2022-12-01T16:32:19.979Z,161.70
2022-12-01T16:34:56.947Z,154.95
2022-12-01T16:37:23.699Z,150.18
2022-12-01T16:39:50.520Z,130.88
2022-12-01T16:42:20.946Z,158.48
2022-12-01T16:44:48.527Z,153.25
2022-12-01T16:47:25.432Z,155.40
2022-12-01T16:49:52.451Z,170.13
2022-12-01T16:52:43.526Z,169.05
2022-12-01T16:55:27.397Z,146.52
2022-12-01T16:57:55.239Z,152.50
2022-12-01T17:00:22.675Z,156.48
2022-12-01T17:02:49.252Z,148.73
2022-12-01T17:05:15.766Z,156.32
2022-12-01T17:07:42.217Z,151.15
2022-12-01T17:10:09.045Z,150.80
2022-12-01T17:12:35.428Z,166.27
2022-12-01T17:15:02.715Z,156.57
2022-12-01T17:17:29.677Z,137.95
2022-12-01T17:19:56.144Z,137.85
2022-12-01T17:22:22.618Z,148.02
2022-12-01T17:24:49.752Z,158.48
2022-12-01T17:27:16.445Z,156.63
2022-12-01T17:29:46.286Z,153.15
2022-12-01T17:32:13.834Z,170.57
2022-12-01T17:34:40.416Z,167.70
2022-12-01T17:37:07.082Z,164.30
2022-12-01T17:39:33.627Z,154.73
2022-12-01T17:42:00.182Z,152.18
2022-12-01T17:44:26.585Z,137.35
2022-12-01T17:46:53.045Z,143.68
2022-12-01T17:49:19.531Z,157.20
2022-12-01T17:51:45.977Z,154.88
2022-12-01T17:54:12.567Z,153.82
2022-12-01T17:56:39.092Z,146.02
2022-12-01T17:59:05.655Z,159.55
2022-12-01T18:01:32.336Z,140.32
2022-12-01T18:03:59.059Z,159.27
2022-12-01T18:06:26.693Z,136.38
2022-12-01T18:08:53.557Z,154.07
2022-12-01T18:11:20.681Z,159.77
2022-12-01T18:13:48.870Z,156.70
2022-12-01T18:16:21.091Z,149.30
2022-12-01T18:18:48.140Z,145.35
2022-12-01T18:21:16.646Z,145.30
2022-12-01T18:23:51.799Z,149.75
2022-12-01T18:26:20.358Z,146.88
2022-12-01T18:28:46.809Z,156.57
2022-12-01T18:31:15.564Z,147.88
2022-12-01T18:33:43.635Z,138.38
2022-12-01T18:36:18.445Z,163.00
2022-12-01T18:38:47.096Z,149.23
2022-12-01T18:41:14.078Z,137.57
2022-12-01T18:43:40.500Z,147.55
2022-12-01T18:46:07.320Z,131.77
2022-12-01T18:48:34.869Z,126.03
2022-12-01T18:51:05.424Z,144.73
2022-12-01T18:53:32.297Z,128.75
2022-12-01T18:56:03.503Z,123.60
2022-12-01T18:58:30.644Z,129.27
2022-12-01T19:00:57.756Z,131.23
2022-12-01T19:03:24.160Z,118.35
2022-12-01T19:05:50.756Z,114.80
2022-12-01T19:08:17.211Z,122.85
2022-12-01T19:10:43.667Z,130.13
2022-12-01T19:13:10.045Z,135.40
2022-12-01T19:15:37.012Z,137.23
2022-12-01T19:18:03.523Z,125.13
2022-12-01T19:20:29.921Z,137.32
2022-12-01T19:22:56.307Z,133.13
2022-12-01T19:25:22.686Z,127.63
2022-12-01T19:27:51.209Z,142.63
2022-12-01T19:30:17.602Z,117.40
2022-12-01T19:32:44.304Z,127.05
2022-12-01T19:35:10.827Z,122.68
2022-12-01T19:37:37.254Z,133.25
2022-12-01T19:40:03.791Z,134.55
2022-12-01T19:42:30.169Z,131.48
2022-12-01T19:44:56.654Z,111.88
2022-12-01T19:47:23.143Z,124.53
2022-12-01T19:49:49.697Z,122.90
2022-12-01T19:52:16.075Z,126.60
2022-12-01T19:54:42.649Z,114.50
2022-12-01T19:57:09.063Z,113.25
2022-12-01T19:59:35.561Z,103.30
2022-12-01T20:02:02.040Z,127.82
2022-12-01T20:04:28.508Z,112.63
2022-12-01T20:06:54.882Z,114.70
2022-12-01T20:09:21.278Z,121.10
2022-12-01T20:11:47.718Z,102.15
2022-12-01T20:14:14.352Z,110.07
2022-12-01T20:16:40.855Z,104.03
2022-12-01T20:19:08.057Z,107.53
2022-12-01T20:21:39.050Z,109.22
2022-12-01T20:26:36.014Z,87.38
2022-12-01T20:29:12.767Z,91.43
2022-12-01T20:31:39.785Z,103.47
2022-12-01T20:34:10.761Z,93.10
2022-12-01T20:36:37.785Z,97.18
2022-12-01T20:39:05.710Z,105.78
2022-12-01T20:41:32.095Z,86.57
2022-12-01T20:44:01.273Z,104.18
2022-12-01T20:46:32.416Z,95.15
2022-12-01T20:48:58.822Z,107.43
2022-12-01T20:51:34.405Z,88.57
2022-12-01T20:54:29.288Z,96.50
2022-12-01T20:56:56.934Z,103.25
2022-12-01T20:59:23.573Z,103.15
2022-12-01T21:01:50.081Z,95.72
2022-12-01T21:04:17.195Z,108.45
2022-12-01T21:06:43.590Z,92.40
2022-12-01T21:09:10.563Z,97.15
2022-12-01T21:12:02.659Z,100.20
2022-12-01T21:14:37.379Z,94.47
2022-12-01T21:17:29.870Z,93.25
2022-12-01T21:20:01.543Z,99.57
2022-12-01T21:22:28.074Z,88.43
2022-12-01T21:25:06.494Z,91.95
2022-12-01T21:27:32.940Z,90.97
2022-12-01T21:29:59.582Z,94.75
2022-12-01T21:32:31.401Z,101.32
2022-12-01T21:35:02.339Z,108.57
2022-12-01T21:37:28.853Z,89.57
2022-12-01T21:39:56.456Z,89.18
2022-12-01T21:42:26.352Z,95.95
2022-12-01T21:44:53.101Z,92.93
2022-12-01T21:47:24.929Z,99.47
2022-12-01T21:49:53.900Z,93.18
2022-12-01T21:52:22.823Z,94.22
2022-12-01T21:54:49.804Z,86.18
2022-12-01T21:57:29.421Z,80.13
2022-12-01T21:59:58.613Z,93.28
2022-12-01T22:03:00.190Z,85.53
2022-12-01T22:05:39.351Z,100.90
2022-12-01T22:08:11.954Z,88.15
2022-12-01T22:10:55.468Z,91.32
2022-12-01T22:13:25.854Z,82.18
2022-12-01T22:15:54.097Z,84.57
2022-12-01T22:18:27.821Z,86.32
2022-12-01T22:20:54.205Z,84.50
2022-12-01T22:23:21.302Z,89.93
2022-12-01T22:25:48.209Z,103.60
2022-12-01T22:28:18.043Z,95.57
2022-12-01T22:30:44.548Z,78.13
2022-12-01T22:33:16.943Z,85.05
2022-12-01T22:35:44.994Z,99.18
2022-12-01T22:38:22.013Z,93.03
2022-12-01T22:40:48.319Z,93.15
2022-12-01T22:43:17.899Z,88.97
2022-12-01T22:45:47.539Z,90.28
2022-12-01T22:48:20.615Z,83.82
2022-12-01T22:50:51.601Z,91.38
2022-12-01T22:53:21.278Z,95.97
2022-12-01T22:55:55.271Z,101.70
2022-12-01T22:58:38.023Z,91.82
2022-12-01T23:01:23.104Z,91.03
2022-12-01T23:03:49.563Z,93.78
2022-12-01T23:06:49.526Z,99.78
2022-12-01T23:09:17.155Z,96.72
2022-12-01T23:11:44.404Z,95.32
2022-12-01T23:14:16.556Z,93.82
2022-12-01T23:16:42.996Z,96.95
2022-12-01T23:19:09.629Z,98.72
2022-12-01T23:21:36.357Z,94.38
2022-12-01T23:24:03.898Z,102.70
2022-12-01T23:26:30.281Z,101.05
2022-12-01T23:28:58.054Z,101.45
2022-12-01T23:31:24.934Z,99.55
2022-12-01T23:33:51.476Z,103.45
2022-12-01T23:36:22.745Z,91.00
2022-12-01T23:38:53.182Z,105.28
2022-12-01T23:41:25.601Z,104.93
2022-12-01T23:43:53.941Z,100.95
2022-12-01T23:46:23.197Z,105.93
2022-12-01T23:48:58.468Z,88.90
2022-12-01T23:51:49.913Z,94.57
2022-12-01T23:54:19.884Z,93.47
2022-12-01T23:56:55.115Z,94.22
2022-12-01T23:59:21.967Z,102.10
